F/V Frisby — FGLS — position and weather

sailwx.info

Track history (hours):
 
Tides and Currents Weather Stations Pressure Air Temp Water Temp Dewpoint Dewpoint Depression Visibility Wind Speed Wind Dir Waves Ship Positions

F/V Frisby

Last reported at 2018-Feb-21 17:08 UTC. Time now 2018-Feb-23 08:53 UTC.
Position N 45°55' W 001°20'.

Length 16 m.

Type: Fishing. MMSI: 228117000.

Date/timePositionNaut miles runAvg speedWind from/ knotsBaromVisibWave heightAir tempDewpointWater temp
2018-Feb-21 17:08N 45°55' W 001°20'1 6.4
2018-Feb-21 16:58N 45°54' W 001°21'  
2018-Feb-18 18:08N 45°53' W 001°21'1 6.6
2018-Feb-18 18:00N 45°54' W 001°21'1 2.1
2018-Feb-18 17:30N 45°55' W 001°20'0 0.0
2018-Feb-18 17:00N 45°55' W 001°20'0 0.0
2018-Feb-18 16:30N 45°55' W 001°20'0 0.1
2018-Feb-18 15:41N 45°55' W 001°20'1 6.8
2018-Feb-18 15:31N 45°54' W 001°21'  
2018-Feb-15 17:41N 45°53' W 001°31'2 9.2
2018-Feb-15 17:29N 45°53' W 001°28'5 9.2
2018-Feb-15 16:57N 45°54' W 001°21'1 1.8
2018-Feb-15 16:30N 45°54' W 001°20'1 0.1
2018-Feb-15 06:18N 45°55' W 001°20'0 0.0
2018-Feb-14 16:08N 45°55' W 001°20'0 0.0
2018-Feb-14 15:52N 45°55' W 001°20'0 0.0
2018-Feb-14 15:26N 45°55' W 001°20'0 0.0
2018-Feb-14 14:50N 45°55' W 001°20'0 0.0
2018-Feb-14 14:10N 45°55' W 001°20'0 0.0
2018-Feb-14 13:56N 45°55' W 001°20'0 0.0
2018-Feb-14 13:30N 45°55' W 001°20'0 0.0
2018-Feb-14 12:51N 45°55' W 001°20'0 0.0
2018-Feb-14 12:14N 45°55' W 001°20'0 0.0
2018-Feb-14 11:59N 45°55' W 001°20'0 0.0
2018-Feb-14 11:23N 45°55' W 001°20'0 0.0
2018-Feb-14 10:55N 45°55' W 001°20'0 0.0
2018-Feb-14 07:54N 45°55' W 001°20'0 0.0
2018-Feb-14 05:39N 45°55' W 001°20'0 0.0
2018-Feb-14 05:30N 45°55' W 001°20'0 0.0
2018-Feb-14 05:00N 45°55' W 001°20'0 0.0
2018-Feb-14 04:25N 45°55' W 001°20'0 0.0
2018-Feb-14 03:59N 45°55' W 001°20'0 0.0
2018-Feb-14 03:28N 45°55' W 001°20'0 0.0
2018-Feb-14 02:59N 45°55' W 001°20'0 0.0
2018-Feb-13 13:36N 45°55' W 001°20'0 0.1
2018-Feb-13 13:30N 45°55' W 001°20'0 0.0
2018-Feb-13 12:50N 45°55' W 001°20'  
Track history (hours):
 
Tides and Currents Weather Stations Pressure Air Temp Water Temp Dewpoint Dewpoint Depression Visibility Wind Speed Wind Dir Waves Ship Positions

F/V Frisby

Last reported at 2018-Feb-21 17:08 UTC. Time now 2018-Feb-23 08:53 UTC.
Position N 45°55' W 001°20'.

Length 16 m.

Type: Fishing. MMSI: 228117000.

Date/timePositionNaut miles runAvg speedWind from/ knotsBaromVisibWave heightAir tempDewpointWater temp
2018-Feb-21 17:08N 45°55' W 001°20'1 6.4
2018-Feb-21 16:58N 45°54' W 001°21'  
2018-Feb-18 18:08N 45°53' W 001°21'1 6.6
2018-Feb-18 18:00N 45°54' W 001°21'1 2.1
2018-Feb-18 17:30N 45°55' W 001°20'0 0.0
2018-Feb-18 17:00N 45°55' W 001°20'0 0.0
2018-Feb-18 16:30N 45°55' W 001°20'0 0.1
2018-Feb-18 15:41N 45°55' W 001°20'1 6.8
2018-Feb-18 15:31N 45°54' W 001°21'  
2018-Feb-15 17:41N 45°53' W 001°31'2 9.2
2018-Feb-15 17:29N 45°53' W 001°28'5 9.2
2018-Feb-15 16:57N 45°54' W 001°21'1 1.8
2018-Feb-15 16:30N 45°54' W 001°20'1 0.1
2018-Feb-15 06:18N 45°55' W 001°20'0 0.0
2018-Feb-14 16:08N 45°55' W 001°20'0 0.0
2018-Feb-14 15:52N 45°55' W 001°20'0 0.0
2018-Feb-14 15:26N 45°55' W 001°20'0 0.0
2018-Feb-14 14:50N 45°55' W 001°20'0 0.0
2018-Feb-14 14:10N 45°55' W 001°20'0 0.0
2018-Feb-14 13:56N 45°55' W 001°20'0 0.0
2018-Feb-14 13:30N 45°55' W 001°20'0 0.0
2018-Feb-14 12:51N 45°55' W 001°20'0 0.0
2018-Feb-14 12:14N 45°55' W 001°20'0 0.0
2018-Feb-14 11:59N 45°55' W 001°20'0 0.0
2018-Feb-14 11:23N 45°55' W 001°20'0 0.0
2018-Feb-14 10:55N 45°55' W 001°20'0 0.0
2018-Feb-14 07:54N 45°55' W 001°20'0 0.0
2018-Feb-14 05:39N 45°55' W 001°20'0 0.0
2018-Feb-14 05:30N 45°55' W 001°20'0 0.0
2018-Feb-14 05:00N 45°55' W 001°20'0 0.0
2018-Feb-14 04:25N 45°55' W 001°20'0 0.0
2018-Feb-14 03:59N 45°55' W 001°20'0 0.0
2018-Feb-14 03:28N 45°55' W 001°20'0 0.0
2018-Feb-14 02:59N 45°55' W 001°20'0 0.0
2018-Feb-13 13:36N 45°55' W 001°20'0 0.1
2018-Feb-13 13:30N 45°55' W 001°20'0 0.0
2018-Feb-13 12:50N 45°55' W 001°20'  

Dump ship's entire track history